sensor_id;sensor_type;location;lat;lon;timestamp;temperature;humidity
37204;DHT22;23098;48.054;10.636;2022-07-29T00:01:33;16.80;99.90
37204;DHT22;23098;48.054;10.636;2022-07-29T00:04:02;16.80;99.90
37204;DHT22;23098;48.054;10.636;2022-07-29T00:06:28;16.70;99.90
37204;DHT22;23098;48.054;10.636;2022-07-29T00:08:53;16.60;99.90
37204;DHT22;23098;48.054;10.636;2022-07-29T00:11:19;16.50;99.90
37204;DHT22;23098;48.054;10.636;2022-07-29T00:13:45;16.50;99.90
37204;DHT22;23098;48.054;10.636;2022-07-29T00:16:10;16.50;99.90
37204;DHT22;23098;48.054;10.636;2022-07-29T00:18:36;16.50;99.90
37204;DHT22;23098;48.054;10.636;2022-07-29T00:21:01;16.40;99.90
37204;DHT22;23098;48.054;10.636;2022-07-29T00:23:27;16.40;99.90
37204;DHT22;23098;48.054;10.636;2022-07-29T00:25:52;16.40;99.90
37204;DHT22;23098;48.054;10.636;2022-07-29T00:28:18;16.30;99.90
37204;DHT22;23098;48.054;10.636;2022-07-29T00:30:43;16.40;99.90
37204;DHT22;23098;48.054;10.636;2022-07-29T00:33:09;16.30;99.90
37204;DHT22;23098;48.054;10.636;2022-07-29T00:35:35;16.20;99.90
37204;DHT22;23098;48.054;10.636;2022-07-29T00:38:11;16.20;99.90
37204;DHT22;23098;48.054;10.636;2022-07-29T00:40:37;16.10;99.90
37204;DHT22;23098;48.054;10.636;2022-07-29T00:43:03;16.00;99.90
37204;DHT22;23098;48.054;10.636;2022-07-29T00:45:28;16.10;99.90
37204;DHT22;23098;48.054;10.636;2022-07-29T00:47:55;16.00;99.90
37204;DHT22;23098;48.054;10.636;2022-07-29T00:50:21;16.00;99.90
37204;DHT22;23098;48.054;10.636;2022-07-29T00:52:46;16.00;99.90
37204;DHT22;23098;48.054;10.636;2022-07-29T00:55:13;16.00;99.90
37204;DHT22;23098;48.054;10.636;2022-07-29T00:57:41;16.00;99.90
37204;DHT22;23098;48.054;10.636;2022-07-29T01:00:10;15.90;99.90
37204;DHT22;23098;48.054;10.636;2022-07-29T01:02:36;15.90;99.90
37204;DHT22;23098;48.054;10.636;2022-07-29T01:05:04;15.90;99.90
37204;DHT22;23098;48.054;10.636;2022-07-29T01:07:30;15.90;99.90
37204;DHT22;23098;48.054;10.636;2022-07-29T01:09:58;15.80;99.90
37204;DHT22;23098;48.054;10.636;2022-07-29T01:12:29;15.80;99.90
37204;DHT22;23098;48.054;10.636;2022-07-29T01:14:59;15.80;99.90
37204;DHT22;23098;48.054;10.636;2022-07-29T01:17:44;15.70;99.90
37204;DHT22;23098;48.054;10.636;2022-07-29T01:23:08;15.70;99.90
37204;DHT22;23098;48.054;10.636;2022-07-29T01:30:51;15.70;99.90
37204;DHT22;23098;48.054;10.636;2022-07-29T01:33:20;15.60;99.90
37204;DHT22;23098;48.054;10.636;2022-07-29T01:36:11;15.60;99.90
37204;DHT22;23098;48.054;10.636;2022-07-29T01:38:39;15.60;99.90
37204;DHT22;23098;48.054;10.636;2022-07-29T01:41:09;15.70;99.90
37204;DHT22;23098;48.054;10.636;2022-07-29T01:43:44;15.70;99.90
37204;DHT22;23098;48.054;10.636;2022-07-29T01:46:19;15.70;99.90
37204;DHT22;23098;48.054;10.636;2022-07-29T01:48:54;15.80;99.90
37204;DHT22;23098;48.054;10.636;2022-07-29T01:51:31;15.80;99.90
37204;DHT22;23098;48.054;10.636;2022-07-29T01:54:06;15.80;99.90
37204;DHT22;23098;48.054;10.636;2022-07-29T01:56:35;15.90;99.90
37204;DHT22;23098;48.054;10.636;2022-07-29T01:59:03;15.80;99.90
37204;DHT22;23098;48.054;10.636;2022-07-29T02:01:32;15.70;99.90
37204;DHT22;23098;48.054;10.636;2022-07-29T02:03:59;15.70;99.90
37204;DHT22;23098;48.054;10.636;2022-07-29T02:06:29;15.70;99.90
37204;DHT22;23098;48.054;10.636;2022-07-29T02:08:58;15.70;99.90
37204;DHT22;23098;48.054;10.636;2022-07-29T02:11:24;15.70;99.90
37204;DHT22;23098;48.054;10.636;2022-07-29T02:13:52;15.60;99.90
37204;DHT22;23098;48.054;10.636;2022-07-29T02:16:21;15.60;99.90
37204;DHT22;23098;48.054;10.636;2022-07-29T02:18:50;15.60;99.90
37204;DHT22;23098;48.054;10.636;2022-07-29T02:21:21;15.60;99.90
37204;DHT22;23098;48.054;10.636;2022-07-29T02:23:48;15.60;99.90
37204;DHT22;23098;48.054;10.636;2022-07-29T02:26:15;15.50;99.90
37204;DHT22;23098;48.054;10.636;2022-07-29T02:28:42;15.50;99.90
37204;DHT22;23098;48.054;10.636;2022-07-29T02:31:09;15.50;99.90
37204;DHT22;23098;48.054;10.636;2022-07-29T02:33:35;15.50;99.90
37204;DHT22;23098;48.054;10.636;2022-07-29T02:36:02;15.50;99.90
37204;DHT22;23098;48.054;10.636;2022-07-29T02:38:28;15.40;99.90
37204;DHT22;23098;48.054;10.636;2022-07-29T02:41:23;15.30;99.90
37204;DHT22;23098;48.054;10.636;2022-07-29T02:43:56;15.30;99.90
37204;DHT22;23098;48.054;10.636;2022-07-29T02:46:32;15.30;99.90
37204;DHT22;23098;48.054;10.636;2022-07-29T02:49:18;15.30;99.90
37204;DHT22;23098;48.054;10.636;2022-07-29T02:51:55;15.30;99.90
37204;DHT22;23098;48.054;10.636;2022-07-29T02:54:39;15.20;99.90
37204;DHT22;23098;48.054;10.636;2022-07-29T02:57:41;15.20;99.90
37204;DHT22;23098;48.054;10.636;2022-07-29T03:00:08;15.10;99.90
37204;DHT22;23098;48.054;10.636;2022-07-29T03:02:37;15.10;99.90
37204;DHT22;23098;48.054;10.636;2022-07-29T03:05:04;15.10;99.90
37204;DHT22;23098;48.054;10.636;2022-07-29T03:07:32;15.10;99.90
37204;DHT22;23098;48.054;10.636;2022-07-29T03:09:59;15.10;99.90
37204;DHT22;23098;48.054;10.636;2022-07-29T03:12:26;15.00;99.90
37204;DHT22;23098;48.054;10.636;2022-07-29T03:14:52;15.00;99.90
37204;DHT22;23098;48.054;10.636;2022-07-29T03:17:19;15.00;99.90
37204;DHT22;23098;48.054;10.636;2022-07-29T03:19:46;15.00;99.90
37204;DHT22;23098;48.054;10.636;2022-07-29T03:22:12;14.90;99.90
37204;DHT22;23098;48.054;10.636;2022-07-29T03:24:37;14.90;99.90
37204;DHT22;23098;48.054;10.636;2022-07-29T03:27:04;14.90;99.90
37204;DHT22;23098;48.054;10.636;2022-07-29T03:29:29;14.90;99.90
37204;DHT22;23098;48.054;10.636;2022-07-29T03:31:55;14.90;99.90
37204;DHT22;23098;48.054;10.636;2022-07-29T03:34:21;14.90;99.90
37204;DHT22;23098;48.054;10.636;2022-07-29T03:36:47;14.90;99.90
37204;DHT22;23098;48.054;10.636;2022-07-29T03:39:17;14.90;99.90
37204;DHT22;23098;48.054;10.636;2022-07-29T03:41:45;14.90;99.90
37204;DHT22;23098;48.054;10.636;2022-07-29T03:44:13;14.90;99.90
37204;DHT22;23098;48.054;10.636;2022-07-29T03:46:41;14.80;99.90
37204;DHT22;23098;48.054;10.636;2022-07-29T03:49:09;14.80;99.90
37204;DHT22;23098;48.054;10.636;2022-07-29T03:51:35;14.90;99.90
37204;DHT22;23098;48.054;10.636;2022-07-29T03:54:03;14.90;99.90
37204;DHT22;23098;48.054;10.636;2022-07-29T03:56:29;14.90;99.90
37204;DHT22;23098;48.054;10.636;2022-07-29T03:58:56;14.90;99.90
37204;DHT22;23098;48.054;10.636;2022-07-29T04:01:22;14.90;99.90
37204;DHT22;23098;48.054;10.636;2022-07-29T04:03:49;14.90;99.90
37204;DHT22;23098;48.054;10.636;2022-07-29T04:06:15;14.90;99.90
37204;DHT22;23098;48.054;10.636;2022-07-29T04:08:40;14.90;99.90
37204;DHT22;23098;48.054;10.636;2022-07-29T04:11:06;14.90;99.90
37204;DHT22;23098;48.054;10.636;2022-07-29T04:13:32;14.90;99.90
37204;DHT22;23098;48.054;10.636;2022-07-29T04:15:58;14.90;99.90
37204;DHT22;23098;48.054;10.636;2022-07-29T04:18:24;14.80;99.90
37204;DHT22;23098;48.054;10.636;2022-07-29T04:20:50;14.90;99.90
37204;DHT22;23098;48.054;10.636;2022-07-29T04:23:15;15.10;99.90
37204;DHT22;23098;48.054;10.636;2022-07-29T04:25:41;15.40;99.90
37204;DHT22;23098;48.054;10.636;2022-07-29T04:28:08;15.50;99.90
37204;DHT22;23098;48.054;10.636;2022-07-29T04:30:35;15.50;99.90
37204;DHT22;23098;48.054;10.636;2022-07-29T04:33:02;15.70;99.90
37204;DHT22;23098;48.054;10.636;2022-07-29T04:35:28;15.90;99.90
37204;DHT22;23098;48.054;10.636;2022-07-29T04:37:54;16.10;99.90
37204;DHT22;23098;48.054;10.636;2022-07-29T04:40:21;16.50;99.90
37204;DHT22;23098;48.054;10.636;2022-07-29T04:43:01;16.60;99.90
37204;DHT22;23098;48.054;10.636;2022-07-29T04:45:27;17.00;99.90
37204;DHT22;23098;48.054;10.636;2022-07-29T04:47:53;17.30;99.90
37204;DHT22;23098;48.054;10.636;2022-07-29T04:50:19;17.70;99.90
37204;DHT22;23098;48.054;10.636;2022-07-29T04:52:44;18.10;99.90
37204;DHT22;23098;48.054;10.636;2022-07-29T04:55:10;18.40;99.90
37204;DHT22;23098;48.054;10.636;2022-07-29T04:57:35;18.90;99.90
37204;DHT22;23098;48.054;10.636;2022-07-29T05:00:01;19.20;99.90
37204;DHT22;23098;48.054;10.636;2022-07-29T05:02:27;19.50;99.90
37204;DHT22;23098;48.054;10.636;2022-07-29T05:04:52;19.90;99.90
37204;DHT22;23098;48.054;10.636;2022-07-29T05:07:18;20.20;99.90
37204;DHT22;23098;48.054;10.636;2022-07-29T05:09:43;20.50;99.90
37204;DHT22;23098;48.054;10.636;2022-07-29T05:12:09;20.60;99.90
37204;DHT22;23098;48.054;10.636;2022-07-29T05:14:35;21.00;99.90
37204;DHT22;23098;48.054;10.636;2022-07-29T05:17:00;21.60;99.90
37204;DHT22;23098;48.054;10.636;2022-07-29T05:19:26;22.10;99.90
37204;DHT22;23098;48.054;10.636;2022-07-29T05:21:51;22.30;99.90
37204;DHT22;23098;48.054;10.636;2022-07-29T05:24:18;22.60;99.90
37204;DHT22;23098;48.054;10.636;2022-07-29T05:26:43;22.00;99.90
37204;DHT22;23098;48.054;10.636;2022-07-29T05:29:09;21.90;99.90
37204;DHT22;23098;48.054;10.636;2022-07-29T05:31:34;22.00;99.90
37204;DHT22;23098;48.054;10.636;2022-07-29T05:34:00;23.00;99.90
37204;DHT22;23098;48.054;10.636;2022-07-29T05:36:26;23.70;99.90
37204;DHT22;23098;48.054;10.636;2022-07-29T05:38:52;23.60;99.90
37204;DHT22;23098;48.054;10.636;2022-07-29T05:41:18;24.30;99.90
37204;DHT22;23098;48.054;10.636;2022-07-29T05:43:44;25.00;99.90
37204;DHT22;23098;48.054;10.636;2022-07-29T05:46:10;24.60;99.90
37204;DHT22;23098;48.054;10.636;2022-07-29T05:48:35;25.50;99.90
37204;DHT22;23098;48.054;10.636;2022-07-29T05:51:01;25.80;99.90
37204;DHT22;23098;48.054;10.636;2022-07-29T05:53:27;26.50;99.20
37204;DHT22;23098;48.054;10.636;2022-07-29T05:55:52;26.40;98.70
37204;DHT22;23098;48.054;10.636;2022-07-29T05:58:19;26.50;98.40
37204;DHT22;23098;48.054;10.636;2022-07-29T06:00:45;27.00;99.00
37204;DHT22;23098;48.054;10.636;2022-07-29T06:03:10;27.00;97.30
37204;DHT22;23098;48.054;10.636;2022-07-29T06:05:36;26.80;98.60
37204;DHT22;23098;48.054;10.636;2022-07-29T06:08:02;27.40;97.70
37204;DHT22;23098;48.054;10.636;2022-07-29T06:10:28;26.80;97.50
37204;DHT22;23098;48.054;10.636;2022-07-29T06:12:53;27.00;96.90
37204;DHT22;23098;48.054;10.636;2022-07-29T06:15:19;27.10;97.80
37204;DHT22;23098;48.054;10.636;2022-07-29T06:17:44;27.80;97.20
37204;DHT22;23098;48.054;10.636;2022-07-29T06:20:10;27.70;96.60
37204;DHT22;23098;48.054;10.636;2022-07-29T06:22:36;27.90;96.50
37204;DHT22;23098;48.054;10.636;2022-07-29T06:25:02;28.20;96.10
37204;DHT22;23098;48.054;10.636;2022-07-29T06:27:27;28.30;95.40
37204;DHT22;23098;48.054;10.636;2022-07-29T06:29:53;28.50;94.30
37204;DHT22;23098;48.054;10.636;2022-07-29T06:32:19;27.90;94.30
37204;DHT22;23098;48.054;10.636;2022-07-29T06:34:44;27.30;96.50
37204;DHT22;23098;48.054;10.636;2022-07-29T06:37:10;26.50;97.10
37204;DHT22;23098;48.054;10.636;2022-07-29T06:39:36;26.40;97.90
37204;DHT22;23098;48.054;10.636;2022-07-29T06:42:03;26.60;98.80
37204;DHT22;23098;48.054;10.636;2022-07-29T06:44:28;27.50;97.00
37204;DHT22;23098;48.054;10.636;2022-07-29T06:46:55;28.00;96.00
37204;DHT22;23098;48.054;10.636;2022-07-29T06:49:21;27.00;95.10
37204;DHT22;23098;48.054;10.636;2022-07-29T06:51:47;26.80;97.10
37204;DHT22;23098;48.054;10.636;2022-07-29T06:54:12;26.10;96.00
37204;DHT22;23098;48.054;10.636;2022-07-29T06:56:38;25.50;97.10
37204;DHT22;23098;48.054;10.636;2022-07-29T06:59:04;24.80;97.50
37204;DHT22;23098;48.054;10.636;2022-07-29T07:01:30;23.60;99.00
37204;DHT22;23098;48.054;10.636;2022-07-29T07:03:56;23.00;99.90
37204;DHT22;23098;48.054;10.636;2022-07-29T07:06:21;22.40;99.90
37204;DHT22;23098;48.054;10.636;2022-07-29T07:08:47;22.00;99.90
37204;DHT22;23098;48.054;10.636;2022-07-29T07:11:12;21.70;99.90
37204;DHT22;23098;48.054;10.636;2022-07-29T07:13:38;21.50;99.90
37204;DHT22;23098;48.054;10.636;2022-07-29T07:16:04;21.40;99.90
37204;DHT22;23098;48.054;10.636;2022-07-29T07:18:30;21.30;99.90
37204;DHT22;23098;48.054;10.636;2022-07-29T07:20:56;21.10;99.90
37204;DHT22;23098;48.054;10.636;2022-07-29T07:23:22;21.20;99.90
37204;DHT22;23098;48.054;10.636;2022-07-29T07:25:47;21.30;99.90
37204;DHT22;23098;48.054;10.636;2022-07-29T07:28:13;21.20;99.90
37204;DHT22;23098;48.054;10.636;2022-07-29T07:30:39;21.10;99.90
37204;DHT22;23098;48.054;10.636;2022-07-29T07:33:05;20.80;99.90
37204;DHT22;23098;48.054;10.636;2022-07-29T07:35:30;20.70;99.90
37204;DHT22;23098;48.054;10.636;2022-07-29T07:37:56;20.70;99.90
37204;DHT22;23098;48.054;10.636;2022-07-29T07:40:22;20.70;99.90
37204;DHT22;23098;48.054;10.636;2022-07-29T07:42:47;20.70;99.90
37204;DHT22;23098;48.054;10.636;2022-07-29T07:45:13;20.70;99.90
37204;DHT22;23098;48.054;10.636;2022-07-29T07:47:39;20.60;99.90
37204;DHT22;23098;48.054;10.636;2022-07-29T07:50:06;20.70;99.90
37204;DHT22;23098;48.054;10.636;2022-07-29T07:52:32;20.80;99.90
37204;DHT22;23098;48.054;10.636;2022-07-29T07:54:58;20.80;99.90
37204;DHT22;23098;48.054;10.636;2022-07-29T07:57:23;21.10;99.90
37204;DHT22;23098;48.054;10.636;2022-07-29T07:59:49;21.30;99.90
37204;DHT22;23098;48.054;10.636;2022-07-29T08:02:14;21.60;99.90
37204;DHT22;23098;48.054;10.636;2022-07-29T08:04:40;21.80;99.90
37204;DHT22;23098;48.054;10.636;2022-07-29T08:07:06;21.80;99.90
37204;DHT22;23098;48.054;10.636;2022-07-29T08:09:31;21.90;99.90
37204;DHT22;23098;48.054;10.636;2022-07-29T08:11:58;21.90;99.90
37204;DHT22;23098;48.054;10.636;2022-07-29T08:14:25;21.90;99.90
37204;DHT22;23098;48.054;10.636;2022-07-29T08:16:50;21.80;99.90
37204;DHT22;23098;48.054;10.636;2022-07-29T08:19:16;21.70;99.90
37204;DHT22;23098;48.054;10.636;2022-07-29T08:21:42;21.90;99.90
37204;DHT22;23098;48.054;10.636;2022-07-29T08:24:07;22.20;99.90
37204;DHT22;23098;48.054;10.636;2022-07-29T08:26:51;22.50;99.90
37204;DHT22;23098;48.054;10.636;2022-07-29T08:29:17;23.00;99.90
37204;DHT22;23098;48.054;10.636;2022-07-29T08:31:44;23.20;99.90
37204;DHT22;23098;48.054;10.636;2022-07-29T08:34:11;23.10;99.90
37204;DHT22;23098;48.054;10.636;2022-07-29T08:36:37;23.50;99.90
37204;DHT22;23098;48.054;10.636;2022-07-29T08:39:04;23.80;99.90
37204;DHT22;23098;48.054;10.636;2022-07-29T08:41:30;23.60;99.90
37204;DHT22;23098;48.054;10.636;2022-07-29T08:44:10;23.50;99.90
37204;DHT22;23098;48.054;10.636;2022-07-29T08:46:41;23.60;99.90
37204;DHT22;23098;48.054;10.636;2022-07-29T08:49:07;23.80;99.90
37204;DHT22;23098;48.054;10.636;2022-07-29T08:51:33;23.90;99.90
37204;DHT22;23098;48.054;10.636;2022-07-29T08:54:01;23.90;99.90
37204;DHT22;23098;48.054;10.636;2022-07-29T08:56:27;23.30;99.90
37204;DHT22;23098;48.054;10.636;2022-07-29T08:58:54;23.60;99.90
37204;DHT22;23098;48.054;10.636;2022-07-29T09:01:24;23.70;99.90
37204;DHT22;23098;48.054;10.636;2022-07-29T09:03:55;23.70;99.90
37204;DHT22;23098;48.054;10.636;2022-07-29T09:06:21;23.90;99.90
37204;DHT22;23098;48.054;10.636;2022-07-29T09:08:47;23.90;99.90
37204;DHT22;23098;48.054;10.636;2022-07-29T09:11:14;23.60;99.90
37204;DHT22;23098;48.054;10.636;2022-07-29T09:13:40;23.70;99.90
37204;DHT22;23098;48.054;10.636;2022-07-29T09:16:06;23.70;99.90
37204;DHT22;23098;48.054;10.636;2022-07-29T09:18:37;23.60;99.90
37204;DHT22;23098;48.054;10.636;2022-07-29T09:21:05;23.50;99.90
37204;DHT22;23098;48.054;10.636;2022-07-29T09:24:10;23.40;99.90
37204;DHT22;23098;48.054;10.636;2022-07-29T09:26:39;23.20;99.90
37204;DHT22;23098;48.054;10.636;2022-07-29T09:31:45;23.20;99.90
37204;DHT22;23098;48.054;10.636;2022-07-29T09:34:14;23.60;99.90
37204;DHT22;23098;48.054;10.636;2022-07-29T09:36:43;23.80;99.90
37204;DHT22;23098;48.054;10.636;2022-07-29T09:39:09;23.80;99.90
37204;DHT22;23098;48.054;10.636;2022-07-29T09:41:53;23.90;99.90
37204;DHT22;23098;48.054;10.636;2022-07-29T09:44:19;23.90;99.90
37204;DHT22;23098;48.054;10.636;2022-07-29T09:49:20;23.90;99.90
37204;DHT22;23098;48.054;10.636;2022-07-29T09:51:46;24.00;99.90
37204;DHT22;23098;48.054;10.636;2022-07-29T09:54:27;24.10;99.90
37204;DHT22;23098;48.054;10.636;2022-07-29T09:56:55;24.10;99.90
37204;DHT22;23098;48.054;10.636;2022-07-29T09:59:21;24.30;99.90
37204;DHT22;23098;48.054;10.636;2022-07-29T10:01:49;24.30;99.90
37204;DHT22;23098;48.054;10.636;2022-07-29T10:04:18;24.70;99.90
37204;DHT22;23098;48.054;10.636;2022-07-29T10:07:01;24.70;99.50
37204;DHT22;23098;48.054;10.636;2022-07-29T10:09:26;24.70;99.20
37204;DHT22;23098;48.054;10.636;2022-07-29T10:12:12;24.60;99.30
37204;DHT22;23098;48.054;10.636;2022-07-29T10:14:40;24.50;99.60
37204;DHT22;23098;48.054;10.636;2022-07-29T10:17:07;24.50;99.60
37204;DHT22;23098;48.054;10.636;2022-07-29T10:19:35;24.60;99.70
37204;DHT22;23098;48.054;10.636;2022-07-29T10:22:03;24.80;99.40
37204;DHT22;23098;48.054;10.636;2022-07-29T10:24:29;25.00;99.30
37204;DHT22;23098;48.054;10.636;2022-07-29T10:26:56;24.70;97.80
37204;DHT22;23098;48.054;10.636;2022-07-29T10:29:23;24.80;98.60
37204;DHT22;23098;48.054;10.636;2022-07-29T10:32:19;25.00;97.80
37204;DHT22;23098;48.054;10.636;2022-07-29T10:38:21;25.00;96.90
37204;DHT22;23098;48.054;10.636;2022-07-29T10:43:55;25.20;96.10
37204;DHT22;23098;48.054;10.636;2022-07-29T10:46:21;25.40;95.50
37204;DHT22;23098;48.054;10.636;2022-07-29T10:57:26;25.00;97.00
37204;DHT22;23098;48.054;10.636;2022-07-29T11:05:05;25.30;97.10
37204;DHT22;23098;48.054;10.636;2022-07-29T11:07:32;25.30;96.80
37204;DHT22;23098;48.054;10.636;2022-07-29T11:12:45;26.30;97.80
37204;DHT22;23098;48.054;10.636;2022-07-29T11:15:14;26.40;96.60
37204;DHT22;23098;48.054;10.636;2022-07-29T11:20:47;26.30;96.40
37204;DHT22;23098;48.054;10.636;2022-07-29T11:23:30;26.20;96.40
37204;DHT22;23098;48.054;10.636;2022-07-29T11:29:18;25.60;96.80
37204;DHT22;23098;48.054;10.636;2022-07-29T11:31:47;25.30;96.60
37204;DHT22;23098;48.054;10.636;2022-07-29T11:34:30;25.00;97.20
37204;DHT22;23098;48.054;10.636;2022-07-29T11:39:38;25.00;97.50
37204;DHT22;23098;48.054;10.636;2022-07-29T11:47:31;24.50;97.40
37204;DHT22;23098;48.054;10.636;2022-07-29T11:49:59;24.40;97.50
37204;DHT22;23098;48.054;10.636;2022-07-29T11:52:42;24.40;97.80
37204;DHT22;23098;48.054;10.636;2022-07-29T11:55:15;24.10;98.40
37204;DHT22;23098;48.054;10.636;2022-07-29T11:57:50;24.00;98.40
37204;DHT22;23098;48.054;10.636;2022-07-29T12:01:00;23.90;98.40
37204;DHT22;23098;48.054;10.636;2022-07-29T12:03:26;23.80;98.80
37204;DHT22;23098;48.054;10.636;2022-07-29T12:05:52;23.90;99.10
37204;DHT22;23098;48.054;10.636;2022-07-29T12:08:20;23.80;98.70
37204;DHT22;23098;48.054;10.636;2022-07-29T12:10:49;23.80;99.00
37204;DHT22;23098;48.054;10.636;2022-07-29T12:13:17;23.80;98.70
37204;DHT22;23098;48.054;10.636;2022-07-29T12:15:50;23.70;99.10
37204;DHT22;23098;48.054;10.636;2022-07-29T12:18:19;23.70;99.40
37204;DHT22;23098;48.054;10.636;2022-07-29T12:20:46;23.70;99.90
37204;DHT22;23098;48.054;10.636;2022-07-29T12:23:13;23.50;99.90
37204;DHT22;23098;48.054;10.636;2022-07-29T12:25:40;23.10;99.60
37204;DHT22;23098;48.054;10.636;2022-07-29T12:28:10;23.00;99.90
37204;DHT22;23098;48.054;10.636;2022-07-29T12:30:44;22.90;99.90
37204;DHT22;23098;48.054;10.636;2022-07-29T12:33:27;22.90;99.90
37204;DHT22;23098;48.054;10.636;2022-07-29T12:35:57;22.90;99.90
37204;DHT22;23098;48.054;10.636;2022-07-29T12:38:23;22.70;99.90
37204;DHT22;23098;48.054;10.636;2022-07-29T12:40:49;22.50;99.90
37204;DHT22;23098;48.054;10.636;2022-07-29T12:43:26;22.30;99.90
37204;DHT22;23098;48.054;10.636;2022-07-29T12:45:53;22.30;99.90
37204;DHT22;23098;48.054;10.636;2022-07-29T12:48:35;22.10;99.90
37204;DHT22;23098;48.054;10.636;2022-07-29T12:51:03;22.00;99.90
37204;DHT22;23098;48.054;10.636;2022-07-29T12:53:29;21.90;99.90
37204;DHT22;23098;48.054;10.636;2022-07-29T12:55:56;21.90;99.90
37204;DHT22;23098;48.054;10.636;2022-07-29T13:01:07;21.80;99.90
37204;DHT22;23098;48.054;10.636;2022-07-29T13:09:19;21.70;99.90
37204;DHT22;23098;48.054;10.636;2022-07-29T13:11:52;21.80;99.90
37204;DHT22;23098;48.054;10.636;2022-07-29T13:14:33;21.80;99.90
37204;DHT22;23098;48.054;10.636;2022-07-29T13:19:41;21.60;99.90
37204;DHT22;23098;48.054;10.636;2022-07-29T13:22:09;21.70;99.90
37204;DHT22;23098;48.054;10.636;2022-07-29T13:27:15;21.70;99.90
37204;DHT22;23098;48.054;10.636;2022-07-29T13:29:40;21.90;99.90
37204;DHT22;23098;48.054;10.636;2022-07-29T13:32:06;22.00;99.90
37204;DHT22;23098;48.054;10.636;2022-07-29T13:34:32;22.20;99.90
37204;DHT22;23098;48.054;10.636;2022-07-29T13:36:59;22.20;99.90
37204;DHT22;23098;48.054;10.636;2022-07-29T13:39:25;22.50;99.90
37204;DHT22;23098;48.054;10.636;2022-07-29T13:41:51;22.70;99.90
37204;DHT22;23098;48.054;10.636;2022-07-29T13:44:16;22.70;99.90
37204;DHT22;23098;48.054;10.636;2022-07-29T13:46:42;23.00;99.90
37204;DHT22;23098;48.054;10.636;2022-07-29T13:49:07;23.00;99.90
37204;DHT22;23098;48.054;10.636;2022-07-29T13:51:33;23.10;99.90
37204;DHT22;23098;48.054;10.636;2022-07-29T13:53:58;23.30;99.90
37204;DHT22;23098;48.054;10.636;2022-07-29T13:56:24;23.40;99.90
37204;DHT22;23098;48.054;10.636;2022-07-29T13:58:49;23.40;99.20
37204;DHT22;23098;48.054;10.636;2022-07-29T14:01:15;23.60;99.10
37204;DHT22;23098;48.054;10.636;2022-07-29T14:03:42;23.80;98.30
37204;DHT22;23098;48.054;10.636;2022-07-29T14:06:08;24.00;98.40
37204;DHT22;23098;48.054;10.636;2022-07-29T14:08:34;24.00;98.30
37204;DHT22;23098;48.054;10.636;2022-07-29T14:10:59;24.40;97.40
37204;DHT22;23098;48.054;10.636;2022-07-29T14:13:25;24.60;96.40
37204;DHT22;23098;48.054;10.636;2022-07-29T14:15:51;24.90;97.00
37204;DHT22;23098;48.054;10.636;2022-07-29T14:18:16;25.00;96.50
37204;DHT22;23098;48.054;10.636;2022-07-29T14:20:42;24.80;96.80
37204;DHT22;23098;48.054;10.636;2022-07-29T14:23:08;24.80;96.90
37204;DHT22;23098;48.054;10.636;2022-07-29T14:25:33;24.60;96.80
37204;DHT22;23098;48.054;10.636;2022-07-29T14:28:00;24.20;95.70
37204;DHT22;23098;48.054;10.636;2022-07-29T14:30:26;23.90;96.40
37204;DHT22;23098;48.054;10.636;2022-07-29T14:32:53;23.70;96.20
37204;DHT22;23098;48.054;10.636;2022-07-29T14:35:27;23.70;96.60
37204;DHT22;23098;48.054;10.636;2022-07-29T14:37:53;23.70;96.70
37204;DHT22;23098;48.054;10.636;2022-07-29T14:40:18;23.60;96.60
37204;DHT22;23098;48.054;10.636;2022-07-29T14:42:44;23.60;96.60
37204;DHT22;23098;48.054;10.636;2022-07-29T14:45:09;23.50;96.10
37204;DHT22;23098;48.054;10.636;2022-07-29T14:47:36;23.30;96.60
37204;DHT22;23098;48.054;10.636;2022-07-29T14:50:03;23.10;97.10
37204;DHT22;23098;48.054;10.636;2022-07-29T14:52:29;23.00;97.50
37204;DHT22;23098;48.054;10.636;2022-07-29T14:58:30;23.00;97.80
37204;DHT22;23098;48.054;10.636;2022-07-29T15:03:32;23.10;98.20
37204;DHT22;23098;48.054;10.636;2022-07-29T15:08:33;23.30;98.20
37204;DHT22;23098;48.054;10.636;2022-07-29T15:18:42;23.50;97.60
37204;DHT22;23098;48.054;10.636;2022-07-29T15:21:08;23.40;97.50
37204;DHT22;23098;48.054;10.636;2022-07-29T15:23:34;23.40;97.70
37204;DHT22;23098;48.054;10.636;2022-07-29T15:26:03;23.40;97.80
37204;DHT22;23098;48.054;10.636;2022-07-29T15:28:28;23.30;97.90
37204;DHT22;23098;48.054;10.636;2022-07-29T15:30:54;23.20;98.20
37204;DHT22;23098;48.054;10.636;2022-07-29T15:33:20;23.40;98.60
37204;DHT22;23098;48.054;10.636;2022-07-29T15:35:45;23.30;98.20
37204;DHT22;23098;48.054;10.636;2022-07-29T15:38:11;23.40;98.70
37204;DHT22;23098;48.054;10.636;2022-07-29T15:40:38;23.40;99.00
37204;DHT22;23098;48.054;10.636;2022-07-29T15:43:05;23.60;98.50
37204;DHT22;23098;48.054;10.636;2022-07-29T15:45:41;23.60;98.70
37204;DHT22;23098;48.054;10.636;2022-07-29T15:48:27;23.70;98.70
37204;DHT22;23098;48.054;10.636;2022-07-29T15:50:52;23.60;98.70
37204;DHT22;23098;48.054;10.636;2022-07-29T15:53:18;23.60;98.40
37204;DHT22;23098;48.054;10.636;2022-07-29T15:55:43;23.40;98.20
37204;DHT22;23098;48.054;10.636;2022-07-29T15:58:09;23.20;98.70
37204;DHT22;23098;48.054;10.636;2022-07-29T16:00:34;23.10;98.70
37204;DHT22;23098;48.054;10.636;2022-07-29T16:03:00;22.80;98.50
37204;DHT22;23098;48.054;10.636;2022-07-29T16:05:25;22.70;99.00
37204;DHT22;23098;48.054;10.636;2022-07-29T16:07:54;22.50;99.50
37204;DHT22;23098;48.054;10.636;2022-07-29T16:10:19;22.30;99.90
37204;DHT22;23098;48.054;10.636;2022-07-29T16:12:45;21.20;99.90
37204;DHT22;23098;48.054;10.636;2022-07-29T16:15:10;20.00;99.90
37204;DHT22;23098;48.054;10.636;2022-07-29T16:17:37;19.00;99.90
37204;DHT22;23098;48.054;10.636;2022-07-29T16:20:04;18.40;99.90
37204;DHT22;23098;48.054;10.636;2022-07-29T16:22:30;17.70;99.90
37204;DHT22;23098;48.054;10.636;2022-07-29T16:24:55;17.50;99.90
37204;DHT22;23098;48.054;10.636;2022-07-29T16:27:21;17.30;99.90
37204;DHT22;23098;48.054;10.636;2022-07-29T16:29:51;17.20;99.90
37204;DHT22;23098;48.054;10.636;2022-07-29T16:32:17;16.90;99.90
37204;DHT22;23098;48.054;10.636;2022-07-29T16:34:42;16.60;99.90
37204;DHT22;23098;48.054;10.636;2022-07-29T16:37:09;16.50;99.90
37204;DHT22;23098;48.054;10.636;2022-07-29T16:39:34;16.40;99.90
37204;DHT22;23098;48.054;10.636;2022-07-29T16:42:00;16.30;99.90